This is the latest recevied weather packets stored in our database for station/object YM2KV-13. If no packets are shown the sender has not sent any weather packets the latest 10 day(s).
| Time | Temp. | Humidity | Pressure | Rain* | Wind** | Luminosity | Snow |
|---|---|---|---|---|---|---|---|
| 1777357097 | 10.56° C | 64% | 1029.9 hPa | - | - | - | - |
| 1777356497 | 10° C | 64% | 1030 hPa | - | - | - | - |
| 1777355897 | 9.44° C | 70% | 1030.1 hPa | - | - | - | - |
| 1777355297 | 7.78° C | 73% | 1030.2 hPa | - | - | - | - |
| 1777354697 | 7.22° C | 75% | 1030.3 hPa | - | - | - | - |
| 1777354097 | 6.67° C | 77% | 1030.4 hPa | - | - | - | - |
| 1777353497 | 5.56° C | 80% | 1030.4 hPa | - | - | - | - |
| 1777352897 | 5.56° C | 81% | 1030.4 hPa | - | - | - | - |
| 1777352297 | 5° C | 80% | 1030.4 hPa | - | - | - | - |
| 1777351697 | 5° C | 81% | 1030.6 hPa | - | - | - | - |
| 1777351097 | 3.89° C | 83% | 1030.5 hPa | - | - | - | - |
| 1777350497 | 3.33° C | 84% | 1030.5 hPa | - | - | - | - |
| 1777349897 | 2.78° C | 85% | 1030.6 hPa | - | - | - | - |
| 1777349297 | 2.22° C | 84% | 1030.6 hPa | - | - | - | - |
| 1777348697 | 1.67° C | 85% | 1030.6 hPa | - | - | - | - |
| 1777348097 | 2.22° C | 84% | 1030.7 hPa | - | - | - | - |
| 1777347497 | 1.67° C | 85% | 1030.5 hPa | - | - | - | - |
| 1777346897 | 1.11° C | 85% | 1030.4 hPa | - | - | - | - |
| 1777346297 | 1.11° C | 85% | 1030.4 hPa | - | - | - | - |
| 1777345697 | 1.11° C | 84% | 1030.4 hPa | - | - | - | - |
| 1777345097 | 1.67° C | 83% | 1030.3 hPa | - | - | - | - |
| 1777344496 | 1.67° C | 83% | 1030.4 hPa | - | - | - | - |
| 1777343896 | 1.67° C | 82% | 1030.4 hPa | - | - | - | - |
| 1777343297 | 1.67° C | 83% | 1030.4 hPa | - | - | - | - |
| 1777342697 | 1.67° C | 82% | 1030.5 hPa | - | - | - | - |
* Rain since midnight (hover to see other rain measurements)
** Current wind speed in m/s (hover to see current wind gust speed)